sensor_id;sensor_type;location;lat;lon;timestamp;P1;durP1;ratioP1;P2;durP2;ratioP2
1400;SDS011;46518;48.842;8.926;2023-04-03T00:01:21;3.55;;;3.15;;
1400;SDS011;46518;48.842;8.926;2023-04-03T00:03:51;4.72;;;3.22;;
1400;SDS011;46518;48.842;8.926;2023-04-03T00:06:20;3.30;;;3.05;;
1400;SDS011;46518;48.842;8.926;2023-04-03T00:08:48;3.40;;;3.10;;
1400;SDS011;46518;48.842;8.926;2023-04-03T00:11:17;3.95;;;3.33;;
1400;SDS011;46518;48.842;8.926;2023-04-03T00:13:47;3.83;;;3.53;;
1400;SDS011;46518;48.842;8.926;2023-04-03T00:16:16;5.80;;;3.42;;
1400;SDS011;46518;48.842;8.926;2023-04-03T00:18:44;4.13;;;3.17;;
1400;SDS011;46518;48.842;8.926;2023-04-03T00:21:12;3.47;;;3.17;;
1400;SDS011;46518;48.842;8.926;2023-04-03T00:23:41;4.25;;;2.90;;
1400;SDS011;46518;48.842;8.926;2023-04-03T00:26:09;2.80;;;2.60;;
1400;SDS011;46518;48.842;8.926;2023-04-03T00:28:39;3.55;;;2.80;;
1400;SDS011;46518;48.842;8.926;2023-04-03T00:31:08;3.30;;;3.00;;
1400;SDS011;46518;48.842;8.926;2023-04-03T00:33:37;3.90;;;3.50;;
1400;SDS011;46518;48.842;8.926;2023-04-03T00:36:05;3.70;;;3.15;;
1400;SDS011;46518;48.842;8.926;2023-04-03T00:38:35;3.28;;;2.97;;
1400;SDS011;46518;48.842;8.926;2023-04-03T00:41:04;4.85;;;3.05;;
1400;SDS011;46518;48.842;8.926;2023-04-03T00:43:33;4.15;;;2.90;;
1400;SDS011;46518;48.842;8.926;2023-04-03T00:46:01;4.18;;;3.28;;
1400;SDS011;46518;48.842;8.926;2023-04-03T00:48:31;3.90;;;2.97;;
1400;SDS011;46518;48.842;8.926;2023-04-03T00:51:02;3.95;;;3.55;;
1400;SDS011;46518;48.842;8.926;2023-04-03T00:53:32;4.15;;;3.25;;
1400;SDS011;46518;48.842;8.926;2023-04-03T00:56:04;4.45;;;4.05;;
1400;SDS011;46518;48.842;8.926;2023-04-03T00:58:37;3.33;;;2.97;;
1400;SDS011;46518;48.842;8.926;2023-04-03T01:01:10;3.00;;;2.78;;
1400;SDS011;46518;48.842;8.926;2023-04-03T01:03:43;3.35;;;3.00;;
1400;SDS011;46518;48.842;8.926;2023-04-03T01:06:12;3.83;;;2.83;;
1400;SDS011;46518;48.842;8.926;2023-04-03T01:08:44;3.92;;;3.10;;
1400;SDS011;46518;48.842;8.926;2023-04-03T01:11:14;3.35;;;3.00;;
1400;SDS011;46518;48.842;8.926;2023-04-03T01:13:43;3.10;;;2.55;;
1400;SDS011;46518;48.842;8.926;2023-04-03T01:16:12;3.72;;;3.42;;
1400;SDS011;46518;48.842;8.926;2023-04-03T01:18:40;2.90;;;2.70;;
1400;SDS011;46518;48.842;8.926;2023-04-03T01:24:26;3.40;;;3.10;;
1400;SDS011;46518;48.842;8.926;2023-04-03T01:27:01;3.60;;;3.25;;
1400;SDS011;46518;48.842;8.926;2023-04-03T01:29:31;4.63;;;2.97;;
1400;SDS011;46518;48.842;8.926;2023-04-03T01:32:01;3.38;;;2.90;;
1400;SDS011;46518;48.842;8.926;2023-04-03T01:34:30;3.13;;;2.92;;
1400;SDS011;46518;48.842;8.926;2023-04-03T01:36:59;4.53;;;3.67;;
1400;SDS011;46518;48.842;8.926;2023-04-03T01:39:28;3.17;;;2.90;;
1400;SDS011;46518;48.842;8.926;2023-04-03T01:41:56;3.03;;;2.83;;
1400;SDS011;46518;48.842;8.926;2023-04-03T01:44:30;3.70;;;2.90;;
1400;SDS011;46518;48.842;8.926;2023-04-03T01:46:59;6.10;;;3.63;;
1400;SDS011;46518;48.842;8.926;2023-04-03T01:49:29;3.70;;;3.15;;
1400;SDS011;46518;48.842;8.926;2023-04-03T01:51:58;3.40;;;3.03;;
1400;SDS011;46518;48.842;8.926;2023-04-03T01:54:26;3.78;;;2.90;;
1400;SDS011;46518;48.842;8.926;2023-04-03T01:56:55;4.55;;;3.30;;
1400;SDS011;46518;48.842;8.926;2023-04-03T01:59:23;3.95;;;3.20;;
1400;SDS011;46518;48.842;8.926;2023-04-03T02:01:52;3.53;;;3.22;;
1400;SDS011;46518;48.842;8.926;2023-04-03T02:04:21;3.25;;;2.95;;
1400;SDS011;46518;48.842;8.926;2023-04-03T02:06:50;4.78;;;3.30;;
1400;SDS011;46518;48.842;8.926;2023-04-03T02:09:19;3.00;;;2.80;;
1400;SDS011;46518;48.842;8.926;2023-04-03T02:11:47;3.55;;;3.25;;
1400;SDS011;46518;48.842;8.926;2023-04-03T02:14:15;4.47;;;4.10;;
1400;SDS011;46518;48.842;8.926;2023-04-03T02:16:43;4.05;;;3.65;;
1400;SDS011;46518;48.842;8.926;2023-04-03T02:19:11;6.07;;;4.05;;
1400;SDS011;46518;48.842;8.926;2023-04-03T02:21:40;4.15;;;3.47;;
1400;SDS011;46518;48.842;8.926;2023-04-03T02:24:10;4.10;;;2.90;;
1400;SDS011;46518;48.842;8.926;2023-04-03T02:26:38;3.65;;;3.35;;
1400;SDS011;46518;48.842;8.926;2023-04-03T02:29:07;4.40;;;4.00;;
1400;SDS011;46518;48.842;8.926;2023-04-03T02:31:35;4.03;;;3.75;;
1400;SDS011;46518;48.842;8.926;2023-04-03T02:34:04;3.42;;;3.20;;
1400;SDS011;46518;48.842;8.926;2023-04-03T02:36:34;4.20;;;3.33;;
1400;SDS011;46518;48.842;8.926;2023-04-03T02:39:05;3.90;;;3.50;;
1400;SDS011;46518;48.842;8.926;2023-04-03T02:41:36;3.92;;;3.53;;
1400;SDS011;46518;48.842;8.926;2023-04-03T02:44:10;4.30;;;3.28;;
1400;SDS011;46518;48.842;8.926;2023-04-03T02:46:39;3.75;;;3.47;;
1400;SDS011;46518;48.842;8.926;2023-04-03T02:49:07;4.20;;;3.08;;
1400;SDS011;46518;48.842;8.926;2023-04-03T02:51:35;4.65;;;3.20;;
1400;SDS011;46518;48.842;8.926;2023-04-03T02:54:04;4.20;;;3.90;;
1400;SDS011;46518;48.842;8.926;2023-04-03T02:56:36;4.15;;;3.67;;
1400;SDS011;46518;48.842;8.926;2023-04-03T02:59:04;4.32;;;3.35;;
1400;SDS011;46518;48.842;8.926;2023-04-03T03:01:35;3.67;;;3.20;;
1400;SDS011;46518;48.842;8.926;2023-04-03T03:04:03;3.90;;;3.30;;
1400;SDS011;46518;48.842;8.926;2023-04-03T03:06:31;3.88;;;3.50;;
1400;SDS011;46518;48.842;8.926;2023-04-03T03:08:59;3.65;;;3.35;;
1400;SDS011;46518;48.842;8.926;2023-04-03T03:11:28;5.13;;;3.70;;
1400;SDS011;46518;48.842;8.926;2023-04-03T03:13:57;3.60;;;3.30;;
1400;SDS011;46518;48.842;8.926;2023-04-03T03:16:26;3.88;;;3.10;;
1400;SDS011;46518;48.842;8.926;2023-04-03T03:18:55;4.43;;;2.90;;
1400;SDS011;46518;48.842;8.926;2023-04-03T03:21:25;3.67;;;3.28;;
1400;SDS011;46518;48.842;8.926;2023-04-03T03:23:53;4.30;;;3.63;;
1400;SDS011;46518;48.842;8.926;2023-04-03T03:26:21;3.83;;;3.53;;
1400;SDS011;46518;48.842;8.926;2023-04-03T03:28:50;6.25;;;4.82;;
1400;SDS011;46518;48.842;8.926;2023-04-03T03:31:20;3.90;;;3.35;;
1400;SDS011;46518;48.842;8.926;2023-04-03T03:33:48;3.92;;;3.38;;
1400;SDS011;46518;48.842;8.926;2023-04-03T03:36:17;5.00;;;3.15;;
1400;SDS011;46518;48.842;8.926;2023-04-03T03:38:46;4.32;;;3.92;;
1400;SDS011;46518;48.842;8.926;2023-04-03T03:41:14;4.82;;;3.78;;
1400;SDS011;46518;48.842;8.926;2023-04-03T03:43:43;5.15;;;3.65;;
1400;SDS011;46518;48.842;8.926;2023-04-03T03:46:13;3.88;;;3.50;;
1400;SDS011;46518;48.842;8.926;2023-04-03T03:48:44;4.05;;;3.65;;
1400;SDS011;46518;48.842;8.926;2023-04-03T03:51:12;4.03;;;3.10;;
1400;SDS011;46518;48.842;8.926;2023-04-03T03:53:41;4.30;;;3.58;;
1400;SDS011;46518;48.842;8.926;2023-04-03T03:56:13;4.57;;;3.90;;
1400;SDS011;46518;48.842;8.926;2023-04-03T03:58:43;3.42;;;3.10;;
1400;SDS011;46518;48.842;8.926;2023-04-03T04:01:12;3.58;;;3.35;;
1400;SDS011;46518;48.842;8.926;2023-04-03T04:03:46;3.30;;;3.10;;
1400;SDS011;46518;48.842;8.926;2023-04-03T04:06:19;4.63;;;3.53;;
1400;SDS011;46518;48.842;8.926;2023-04-03T04:08:49;3.78;;;3.42;;
1400;SDS011;46518;48.842;8.926;2023-04-03T04:11:17;4.00;;;3.60;;
1400;SDS011;46518;48.842;8.926;2023-04-03T04:13:46;6.70;;;3.40;;
1400;SDS011;46518;48.842;8.926;2023-04-03T04:16:17;4.35;;;2.88;;
1400;SDS011;46518;48.842;8.926;2023-04-03T04:18:46;3.70;;;3.40;;
1400;SDS011;46518;48.842;8.926;2023-04-03T04:21:15;3.60;;;3.10;;
1400;SDS011;46518;48.842;8.926;2023-04-03T04:23:44;3.60;;;3.30;;
1400;SDS011;46518;48.842;8.926;2023-04-03T04:26:13;4.13;;;3.55;;
1400;SDS011;46518;48.842;8.926;2023-04-03T04:28:42;4.50;;;3.75;;
1400;SDS011;46518;48.842;8.926;2023-04-03T04:31:10;3.42;;;2.75;;
1400;SDS011;46518;48.842;8.926;2023-04-03T04:33:39;2.72;;;2.53;;
1400;SDS011;46518;48.842;8.926;2023-04-03T04:36:11;3.95;;;3.65;;
1400;SDS011;46518;48.842;8.926;2023-04-03T04:38:43;5.25;;;4.40;;
1400;SDS011;46518;48.842;8.926;2023-04-03T04:41:12;4.20;;;3.85;;
1400;SDS011;46518;48.842;8.926;2023-04-03T04:43:41;4.70;;;3.30;;
1400;SDS011;46518;48.842;8.926;2023-04-03T04:46:10;5.50;;;3.75;;
1400;SDS011;46518;48.842;8.926;2023-04-03T04:48:44;4.97;;;4.40;;
1400;SDS011;46518;48.842;8.926;2023-04-03T04:51:14;4.20;;;3.80;;
1400;SDS011;46518;48.842;8.926;2023-04-03T04:53:43;4.95;;;3.60;;
1400;SDS011;46518;48.842;8.926;2023-04-03T04:56:14;5.22;;;4.53;;
1400;SDS011;46518;48.842;8.926;2023-04-03T04:58:43;4.03;;;3.63;;
1400;SDS011;46518;48.842;8.926;2023-04-03T05:01:11;4.03;;;3.70;;
1400;SDS011;46518;48.842;8.926;2023-04-03T05:03:50;4.28;;;3.65;;
1400;SDS011;46518;48.842;8.926;2023-04-03T05:06:20;3.60;;;3.30;;
1400;SDS011;46518;48.842;8.926;2023-04-03T05:08:49;3.53;;;3.22;;
1400;SDS011;46518;48.842;8.926;2023-04-03T05:11:17;4.10;;;3.15;;
1400;SDS011;46518;48.842;8.926;2023-04-03T05:13:51;5.95;;;3.63;;
1400;SDS011;46518;48.842;8.926;2023-04-03T05:16:21;4.45;;;3.50;;
1400;SDS011;46518;48.842;8.926;2023-04-03T05:18:50;4.07;;;2.90;;
1400;SDS011;46518;48.842;8.926;2023-04-03T05:21:22;3.40;;;3.10;;
1400;SDS011;46518;48.842;8.926;2023-04-03T05:23:53;4.53;;;3.17;;
1400;SDS011;46518;48.842;8.926;2023-04-03T05:26:21;3.97;;;3.30;;
1400;SDS011;46518;48.842;8.926;2023-04-03T05:28:50;3.65;;;3.45;;
1400;SDS011;46518;48.842;8.926;2023-04-03T05:31:19;4.03;;;3.72;;
1400;SDS011;46518;48.842;8.926;2023-04-03T05:33:48;4.38;;;4.07;;
1400;SDS011;46518;48.842;8.926;2023-04-03T05:36:17;3.88;;;3.58;;
1400;SDS011;46518;48.842;8.926;2023-04-03T05:38:51;5.75;;;3.80;;
1400;SDS011;46518;48.842;8.926;2023-04-03T05:41:20;5.10;;;3.97;;
1400;SDS011;46518;48.842;8.926;2023-04-03T05:43:49;4.43;;;3.67;;
1400;SDS011;46518;48.842;8.926;2023-04-03T05:46:19;5.88;;;4.30;;
1400;SDS011;46518;48.842;8.926;2023-04-03T05:48:52;2.97;;;2.75;;
1400;SDS011;46518;48.842;8.926;2023-04-03T05:51:24;5.43;;;3.88;;
1400;SDS011;46518;48.842;8.926;2023-04-03T05:54:03;4.70;;;3.92;;
1400;SDS011;46518;48.842;8.926;2023-04-03T05:56:36;4.10;;;3.70;;
1400;SDS011;46518;48.842;8.926;2023-04-03T05:59:04;4.15;;;3.47;;
1400;SDS011;46518;48.842;8.926;2023-04-03T06:01:34;4.30;;;3.13;;
1400;SDS011;46518;48.842;8.926;2023-04-03T06:04:02;4.40;;;3.35;;
1400;SDS011;46518;48.842;8.926;2023-04-03T06:06:42;5.95;;;4.10;;
1400;SDS011;46518;48.842;8.926;2023-04-03T06:09:16;5.95;;;4.60;;
1400;SDS011;46518;48.842;8.926;2023-04-03T06:11:45;3.85;;;3.55;;
1400;SDS011;46518;48.842;8.926;2023-04-03T06:14:14;5.15;;;3.58;;
1400;SDS011;46518;48.842;8.926;2023-04-03T06:16:43;4.85;;;3.70;;
1400;SDS011;46518;48.842;8.926;2023-04-03T06:19:11;4.28;;;3.85;;
1400;SDS011;46518;48.842;8.926;2023-04-03T06:21:45;3.58;;;3.15;;
1400;SDS011;46518;48.842;8.926;2023-04-03T06:24:15;5.13;;;3.50;;
1400;SDS011;46518;48.842;8.926;2023-04-03T06:26:46;4.38;;;3.70;;
1400;SDS011;46518;48.842;8.926;2023-04-03T06:29:15;3.65;;;3.33;;
1400;SDS011;46518;48.842;8.926;2023-04-03T06:31:43;4.05;;;3.72;;
1400;SDS011;46518;48.842;8.926;2023-04-03T06:34:12;3.85;;;3.50;;
1400;SDS011;46518;48.842;8.926;2023-04-03T06:36:40;4.10;;;3.70;;
1400;SDS011;46518;48.842;8.926;2023-04-03T06:39:10;5.95;;;3.72;;
1400;SDS011;46518;48.842;8.926;2023-04-03T06:41:43;4.65;;;3.15;;
1400;SDS011;46518;48.842;8.926;2023-04-03T06:44:12;3.20;;;2.90;;
1400;SDS011;46518;48.842;8.926;2023-04-03T06:46:42;4.07;;;3.20;;
1400;SDS011;46518;48.842;8.926;2023-04-03T06:49:12;3.80;;;3.50;;
1400;SDS011;46518;48.842;8.926;2023-04-03T06:51:42;3.97;;;3.22;;
1400;SDS011;46518;48.842;8.926;2023-04-03T06:54:10;3.25;;;2.95;;
1400;SDS011;46518;48.842;8.926;2023-04-03T06:56:40;4.28;;;3.45;;
1400;SDS011;46518;48.842;8.926;2023-04-03T06:59:20;3.72;;;3.33;;
1400;SDS011;46518;48.842;8.926;2023-04-03T07:01:58;3.80;;;3.40;;
1400;SDS011;46518;48.842;8.926;2023-04-03T07:04:32;3.97;;;3.67;;
1400;SDS011;46518;48.842;8.926;2023-04-03T07:07:06;3.60;;;3.22;;
1400;SDS011;46518;48.842;8.926;2023-04-03T07:09:46;3.75;;;3.10;;
1400;SDS011;46518;48.842;8.926;2023-04-03T07:12:18;3.83;;;3.53;;
1400;SDS011;46518;48.842;8.926;2023-04-03T07:14:51;3.60;;;3.30;;
1400;SDS011;46518;48.842;8.926;2023-04-03T07:17:26;3.92;;;3.53;;
1400;SDS011;46518;48.842;8.926;2023-04-03T07:20:02;3.30;;;3.00;;
1400;SDS011;46518;48.842;8.926;2023-04-03T07:22:35;5.07;;;3.85;;
1400;SDS011;46518;48.842;8.926;2023-04-03T07:25:08;3.60;;;3.30;;
1400;SDS011;46518;48.842;8.926;2023-04-03T07:27:37;9.05;;;3.72;;
1400;SDS011;46518;48.842;8.926;2023-04-03T07:30:09;3.60;;;3.30;;
1400;SDS011;46518;48.842;8.926;2023-04-03T07:32:39;5.05;;;4.00;;
1400;SDS011;46518;48.842;8.926;2023-04-03T07:35:08;4.95;;;4.20;;
1400;SDS011;46518;48.842;8.926;2023-04-03T07:37:37;5.90;;;3.78;;
1400;SDS011;46518;48.842;8.926;2023-04-03T07:40:06;4.40;;;3.35;;
1400;SDS011;46518;48.842;8.926;2023-04-03T07:42:35;8.23;;;3.55;;
1400;SDS011;46518;48.842;8.926;2023-04-03T07:45:05;5.20;;;4.45;;
1400;SDS011;46518;48.842;8.926;2023-04-03T07:47:37;5.68;;;4.68;;
1400;SDS011;46518;48.842;8.926;2023-04-03T07:50:07;5.97;;;4.30;;
1400;SDS011;46518;48.842;8.926;2023-04-03T07:52:36;4.50;;;4.10;;
1400;SDS011;46518;48.842;8.926;2023-04-03T07:55:07;5.75;;;4.63;;
1400;SDS011;46518;48.842;8.926;2023-04-03T07:57:38;4.93;;;4.05;;
1400;SDS011;46518;48.842;8.926;2023-04-03T08:00:07;4.63;;;4.22;;
1400;SDS011;46518;48.842;8.926;2023-04-03T08:02:42;4.60;;;4.20;;
1400;SDS011;46518;48.842;8.926;2023-04-03T08:05:17;6.30;;;4.13;;
1400;SDS011;46518;48.842;8.926;2023-04-03T08:07:49;6.90;;;4.82;;
1400;SDS011;46518;48.842;8.926;2023-04-03T08:10:29;6.00;;;4.38;;
1400;SDS011;46518;48.842;8.926;2023-04-03T08:13:05;3.95;;;3.65;;
1400;SDS011;46518;48.842;8.926;2023-04-03T08:15:40;4.90;;;4.30;;
1400;SDS011;46518;48.842;8.926;2023-04-03T08:18:16;4.88;;;4.47;;
1400;SDS011;46518;48.842;8.926;2023-04-03T08:20:53;6.82;;;3.65;;
1400;SDS011;46518;48.842;8.926;2023-04-03T08:23:27;4.00;;;3.60;;
1400;SDS011;46518;48.842;8.926;2023-04-03T08:26:06;5.35;;;4.65;;
1400;SDS011;46518;48.842;8.926;2023-04-03T08:28:41;4.70;;;4.32;;
1400;SDS011;46518;48.842;8.926;2023-04-03T08:31:16;6.43;;;4.47;;
1400;SDS011;46518;48.842;8.926;2023-04-03T08:33:54;4.13;;;3.80;;
1400;SDS011;46518;48.842;8.926;2023-04-03T08:36:23;5.32;;;3.92;;
1400;SDS011;46518;48.842;8.926;2023-04-03T08:38:53;4.82;;;4.25;;
1400;SDS011;46518;48.842;8.926;2023-04-03T08:41:26;4.57;;;4.28;;
1400;SDS011;46518;48.842;8.926;2023-04-03T08:46:54;5.65;;;4.90;;
1400;SDS011;46518;48.842;8.926;2023-04-03T08:49:32;5.55;;;4.88;;
1400;SDS011;46518;48.842;8.926;2023-04-03T08:52:05;5.25;;;4.40;;
1400;SDS011;46518;48.842;8.926;2023-04-03T08:54:41;4.75;;;4.32;;
1400;SDS011;46518;48.842;8.926;2023-04-03T08:57:20;5.28;;;4.78;;
1400;SDS011;46518;48.842;8.926;2023-04-03T08:59:57;4.60;;;4.20;;
1400;SDS011;46518;48.842;8.926;2023-04-03T09:02:31;4.45;;;4.05;;
1400;SDS011;46518;48.842;8.926;2023-04-03T09:05:05;5.03;;;4.63;;
1400;SDS011;46518;48.842;8.926;2023-04-03T09:07:42;8.43;;;4.22;;
1400;SDS011;46518;48.842;8.926;2023-04-03T09:10:15;5.35;;;4.85;;
1400;SDS011;46518;48.842;8.926;2023-04-03T09:12:49;6.55;;;4.82;;
1400;SDS011;46518;48.842;8.926;2023-04-03T09:15:26;4.15;;;3.85;;
1400;SDS011;46518;48.842;8.926;2023-04-03T09:18:05;5.97;;;4.97;;
1400;SDS011;46518;48.842;8.926;2023-04-03T09:20:43;4.95;;;4.45;;
1400;SDS011;46518;48.842;8.926;2023-04-03T09:26:09;5.47;;;4.68;;
1400;SDS011;46518;48.842;8.926;2023-04-03T09:28:42;4.93;;;4.47;;
1400;SDS011;46518;48.842;8.926;2023-04-03T09:31:18;4.95;;;3.67;;
1400;SDS011;46518;48.842;8.926;2023-04-03T09:33:49;4.63;;;4.22;;
1400;SDS011;46518;48.842;8.926;2023-04-03T09:39:13;4.47;;;3.90;;
1400;SDS011;46518;48.842;8.926;2023-04-03T09:41:54;5.63;;;4.53;;
1400;SDS011;46518;48.842;8.926;2023-04-03T09:44:25;5.55;;;3.83;;
1400;SDS011;46518;48.842;8.926;2023-04-03T09:46:55;3.53;;;3.33;;
1400;SDS011;46518;48.842;8.926;2023-04-03T09:49:23;4.70;;;4.20;;
1400;SDS011;46518;48.842;8.926;2023-04-03T09:51:53;3.88;;;3.55;;
1400;SDS011;46518;48.842;8.926;2023-04-03T09:54:30;6.10;;;3.90;;
1400;SDS011;46518;48.842;8.926;2023-04-03T09:57:05;6.63;;;4.38;;
1400;SDS011;46518;48.842;8.926;2023-04-03T09:59:38;5.32;;;3.60;;
1400;SDS011;46518;48.842;8.926;2023-04-03T10:02:22;5.00;;;4.50;;
1400;SDS011;46518;48.842;8.926;2023-04-03T10:04:58;8.98;;;4.10;;
1400;SDS011;46518;48.842;8.926;2023-04-03T10:07:38;4.70;;;3.50;;
1400;SDS011;46518;48.842;8.926;2023-04-03T10:10:17;5.03;;;4.15;;
1400;SDS011;46518;48.842;8.926;2023-04-03T10:12:54;4.57;;;4.15;;
1400;SDS011;46518;48.842;8.926;2023-04-03T10:15:33;3.45;;;3.25;;
1400;SDS011;46518;48.842;8.926;2023-04-03T10:18:12;5.25;;;3.55;;
1400;SDS011;46518;48.842;8.926;2023-04-03T10:20:57;3.70;;;3.20;;
1400;SDS011;46518;48.842;8.926;2023-04-03T10:23:36;3.88;;;3.58;;
1400;SDS011;46518;48.842;8.926;2023-04-03T10:26:11;5.65;;;3.83;;
1400;SDS011;46518;48.842;8.926;2023-04-03T10:28:45;5.00;;;3.35;;
1400;SDS011;46518;48.842;8.926;2023-04-03T10:31:20;3.20;;;3.00;;
1400;SDS011;46518;48.842;8.926;2023-04-03T10:33:56;5.57;;;3.97;;
1400;SDS011;46518;48.842;8.926;2023-04-03T10:36:37;5.10;;;3.90;;
1400;SDS011;46518;48.842;8.926;2023-04-03T10:39:14;3.63;;;3.33;;
1400;SDS011;46518;48.842;8.926;2023-04-03T10:41:57;4.68;;;3.65;;
1400;SDS011;46518;48.842;8.926;2023-04-03T10:44:50;5.07;;;4.15;;
1400;SDS011;46518;48.842;8.926;2023-04-03T10:47:27;4.43;;;3.45;;
1400;SDS011;46518;48.842;8.926;2023-04-03T10:50:09;5.57;;;3.55;;
1400;SDS011;46518;48.842;8.926;2023-04-03T10:52:51;5.53;;;3.35;;
1400;SDS011;46518;48.842;8.926;2023-04-03T10:55:30;5.70;;;3.95;;
1400;SDS011;46518;48.842;8.926;2023-04-03T10:58:03;4.72;;;3.88;;
1400;SDS011;46518;48.842;8.926;2023-04-03T11:00:36;3.38;;;3.17;;
1400;SDS011;46518;48.842;8.926;2023-04-03T11:03:09;4.15;;;3.50;;
1400;SDS011;46518;48.842;8.926;2023-04-03T11:05:42;4.10;;;3.75;;
1400;SDS011;46518;48.842;8.926;2023-04-03T11:08:15;3.75;;;3.45;;
1400;SDS011;46518;48.842;8.926;2023-04-03T11:10:55;3.90;;;3.60;;
1400;SDS011;46518;48.842;8.926;2023-04-03T11:13:26;3.45;;;3.17;;
1400;SDS011;46518;48.842;8.926;2023-04-03T11:16:00;4.55;;;4.15;;
1400;SDS011;46518;48.842;8.926;2023-04-03T11:18:32;4.15;;;3.45;;
1400;SDS011;46518;48.842;8.926;2023-04-03T11:21:07;5.07;;;3.10;;
1400;SDS011;46518;48.842;8.926;2023-04-03T11:23:39;4.07;;;3.63;;
1400;SDS011;46518;48.842;8.926;2023-04-03T11:26:18;3.15;;;2.60;;
1400;SDS011;46518;48.842;8.926;2023-04-03T11:28:52;3.67;;;3.35;;
1400;SDS011;46518;48.842;8.926;2023-04-03T11:31:27;5.22;;;3.92;;
1400;SDS011;46518;48.842;8.926;2023-04-03T11:34:08;3.42;;;2.78;;
1400;SDS011;46518;48.842;8.926;2023-04-03T11:36:48;8.05;;;3.88;;
1400;SDS011;46518;48.842;8.926;2023-04-03T11:39:21;4.22;;;3.90;;
1400;SDS011;46518;48.842;8.926;2023-04-03T11:41:54;3.50;;;3.20;;
1400;SDS011;46518;48.842;8.926;2023-04-03T11:44:37;6.43;;;3.25;;
1400;SDS011;46518;48.842;8.926;2023-04-03T11:47:06;3.33;;;3.00;;
1400;SDS011;46518;48.842;8.926;2023-04-03T11:58:43;3.33;;;3.03;;
1400;SDS011;46518;48.842;8.926;2023-04-03T12:01:49;3.50;;;2.95;;
1400;SDS011;46518;48.842;8.926;2023-04-03T12:04:19;3.53;;;3.22;;
1400;SDS011;46518;48.842;8.926;2023-04-03T12:06:59;3.53;;;3.22;;
1400;SDS011;46518;48.842;8.926;2023-04-03T12:12:58;4.65;;;2.92;;
1400;SDS011;46518;48.842;8.926;2023-04-03T12:24:39;3.63;;;3.22;;
1400;SDS011;46518;48.842;8.926;2023-04-03T12:27:14;4.63;;;3.65;;
1400;SDS011;46518;48.842;8.926;2023-04-03T12:30:07;3.22;;;2.85;;
1400;SDS011;46518;48.842;8.926;2023-04-03T12:32:51;4.72;;;4.22;;
1400;SDS011;46518;48.842;8.926;2023-04-03T12:35:40;4.47;;;4.03;;
1400;SDS011;46518;48.842;8.926;2023-04-03T12:38:32;7.45;;;3.78;;
1400;SDS011;46518;48.842;8.926;2023-04-03T12:41:26;5.28;;;3.50;;
1400;SDS011;46518;48.842;8.926;2023-04-03T12:44:09;3.88;;;2.75;;
1400;SDS011;46518;48.842;8.926;2023-04-03T12:46:52;2.65;;;2.45;;
1400;SDS011;46518;48.842;8.926;2023-04-03T12:49:30;3.20;;;2.90;;
1400;SDS011;46518;48.842;8.926;2023-04-03T12:52:06;4.15;;;2.38;;
1400;SDS011;46518;48.842;8.926;2023-04-03T12:54:47;2.53;;;2.30;;
1400;SDS011;46518;48.842;8.926;2023-04-03T12:57:18;3.42;;;2.45;;
1400;SDS011;46518;48.842;8.926;2023-04-03T12:59:48;2.83;;;2.45;;
1400;SDS011;46518;48.842;8.926;2023-04-03T13:02:20;3.08;;;2.72;;
1400;SDS011;46518;48.842;8.926;2023-04-03T13:04:52;2.60;;;2.40;;
1400;SDS011;46518;48.842;8.926;2023-04-03T13:07:25;3.75;;;3.10;;
1400;SDS011;46518;48.842;8.926;2023-04-03T13:09:59;2.67;;;2.47;;
1400;SDS011;46518;48.842;8.926;2023-04-03T13:12:29;2.63;;;2.20;;
1400;SDS011;46518;48.842;8.926;2023-04-03T13:14:59;3.00;;;2.80;;
1400;SDS011;46518;48.842;8.926;2023-04-03T13:17:31;2.90;;;2.67;;
1400;SDS011;46518;48.842;8.926;2023-04-03T13:20:13;3.63;;;2.50;;
1400;SDS011;46518;48.842;8.926;2023-04-03T13:22:49;2.63;;;2.42;;
1400;SDS011;46518;48.842;8.926;2023-04-03T13:25:25;2.33;;;2.10;;
1400;SDS011;46518;48.842;8.926;2023-04-03T13:27:55;6.70;;;2.78;;
1400;SDS011;46518;48.842;8.926;2023-04-03T13:30:39;3.13;;;2.83;;
1400;SDS011;46518;48.842;8.926;2023-04-03T13:33:19;3.28;;;2.90;;
1400;SDS011;46518;48.842;8.926;2023-04-03T13:35:56;2.33;;;2.10;;
1400;SDS011;46518;48.842;8.926;2023-04-03T13:38:28;2.85;;;2.25;;
1400;SDS011;46518;48.842;8.926;2023-04-03T13:41:00;3.00;;;2.10;;
1400;SDS011;46518;48.842;8.926;2023-04-03T13:43:31;2.63;;;2.00;;
1400;SDS011;46518;48.842;8.926;2023-04-03T13:46:03;2.92;;;2.40;;
1400;SDS011;46518;48.842;8.926;2023-04-03T13:48:38;2.20;;;2.00;;
1400;SDS011;46518;48.842;8.926;2023-04-03T13:51:18;3.03;;;2.60;;
1400;SDS011;46518;48.842;8.926;2023-04-03T13:53:50;2.35;;;2.15;;
1400;SDS011;46518;48.842;8.926;2023-04-03T13:56:24;3.90;;;2.08;;
1400;SDS011;46518;48.842;8.926;2023-04-03T13:58:59;3.00;;;2.65;;
1400;SDS011;46518;48.842;8.926;2023-04-03T14:01:36;4.70;;;2.10;;
1400;SDS011;46518;48.842;8.926;2023-04-03T14:04:12;6.55;;;2.85;;
1400;SDS011;46518;48.842;8.926;2023-04-03T14:06:46;4.75;;;3.20;;
1400;SDS011;46518;48.842;8.926;2023-04-03T14:09:15;4.13;;;3.20;;
1400;SDS011;46518;48.842;8.926;2023-04-03T14:11:45;2.17;;;2.08;;
1400;SDS011;46518;48.842;8.926;2023-04-03T14:14:15;3.67;;;3.22;;
1400;SDS011;46518;48.842;8.926;2023-04-03T14:16:47;2.65;;;2.05;;
1400;SDS011;46518;48.842;8.926;2023-04-03T14:19:20;2.83;;;2.63;;
1400;SDS011;46518;48.842;8.926;2023-04-03T14:21:51;3.33;;;3.03;;
1400;SDS011;46518;48.842;8.926;2023-04-03T14:24:21;1.88;;;1.77;;
1400;SDS011;46518;48.842;8.926;2023-04-03T14:26:50;5.70;;;2.47;;
1400;SDS011;46518;48.842;8.926;2023-04-03T14:29:20;2.65;;;2.45;;
1400;SDS011;46518;48.842;8.926;2023-04-03T14:31:49;3.70;;;2.85;;
1400;SDS011;46518;48.842;8.926;2023-04-03T14:34:37;2.85;;;2.65;;
1400;SDS011;46518;48.842;8.926;2023-04-03T14:37:08;3.45;;;2.80;;
1400;SDS011;46518;48.842;8.926;2023-04-03T14:39:38;5.72;;;3.22;;
1400;SDS011;46518;48.842;8.926;2023-04-03T14:42:10;3.50;;;3.20;;
1400;SDS011;46518;48.842;8.926;2023-04-03T14:44:42;2.72;;;2.40;;
1400;SDS011;46518;48.842;8.926;2023-04-03T14:47:11;3.20;;;2.45;;
1400;SDS011;46518;48.842;8.926;2023-04-03T14:49:56;3.65;;;2.70;;
1400;SDS011;46518;48.842;8.926;2023-04-03T14:52:26;4.30;;;2.97;;
1400;SDS011;46518;48.842;8.926;2023-04-03T14:54:56;3.78;;;2.70;;
1400;SDS011;46518;48.842;8.926;2023-04-03T14:57:26;2.95;;;2.75;;
1400;SDS011;46518;48.842;8.926;2023-04-03T14:59:56;2.75;;;2.05;;
1400;SDS011;46518;48.842;8.926;2023-04-03T15:02:26;3.90;;;2.30;;
1400;SDS011;46518;48.842;8.926;2023-04-03T15:04:57;4.57;;;3.15;;
1400;SDS011;46518;48.842;8.926;2023-04-03T15:07:28;4.75;;;3.83;;
1400;SDS011;46518;48.842;8.926;2023-04-03T15:09:58;4.20;;;3.25;;
1400;SDS011;46518;48.842;8.926;2023-04-03T15:12:27;3.67;;;2.72;;
1400;SDS011;46518;48.842;8.926;2023-04-03T15:14:56;3.42;;;2.70;;
1400;SDS011;46518;48.842;8.926;2023-04-03T15:17:29;1.85;;;1.73;;
1400;SDS011;46518;48.842;8.926;2023-04-03T15:19:57;3.33;;;3.10;;
1400;SDS011;46518;48.842;8.926;2023-04-03T15:22:27;4.25;;;2.50;;
1400;SDS011;46518;48.842;8.926;2023-04-03T15:24:56;2.97;;;2.63;;
1400;SDS011;46518;48.842;8.926;2023-04-03T15:27:24;3.08;;;2.70;;
1400;SDS011;46518;48.842;8.926;2023-04-03T15:29:52;2.60;;;2.40;;
1400;SDS011;46518;48.842;8.926;2023-04-03T15:32:20;4.00;;;2.85;;
1400;SDS011;46518;48.842;8.926;2023-04-03T15:34:48;5.60;;;3.30;;
1400;SDS011;46518;48.842;8.926;2023-04-03T15:37:24;4.53;;;2.90;;
1400;SDS011;46518;48.842;8.926;2023-04-03T15:39:54;5.15;;;3.30;;
1400;SDS011;46518;48.842;8.926;2023-04-03T15:42:22;4.65;;;3.42;;
1400;SDS011;46518;48.842;8.926;2023-04-03T15:44:50;3.97;;;3.45;;
1400;SDS011;46518;48.842;8.926;2023-04-03T15:47:18;2.80;;;2.60;;
1400;SDS011;46518;48.842;8.926;2023-04-03T15:49:46;4.45;;;2.67;;
1400;SDS011;46518;48.842;8.926;2023-04-03T15:52:15;4.15;;;3.63;;
1400;SDS011;46518;48.842;8.926;2023-04-03T15:54:43;3.40;;;2.67;;
1400;SDS011;46518;48.842;8.926;2023-04-03T15:57:13;2.60;;;2.40;;
1400;SDS011;46518;48.842;8.926;2023-04-03T15:59:41;2.85;;;2.65;;
1400;SDS011;46518;48.842;8.926;2023-04-03T16:02:09;3.85;;;2.83;;
1400;SDS011;46518;48.842;8.926;2023-04-03T16:04:40;3.10;;;2.80;;